Time;durP1;ratioP1;P1;durP2;ratioP2;P2;SDS_P1;SDS_P2;PMS_P1;PMS_P2;Temp;Humidity;BMP_temperature;BMP_pressure;BME280_temperature;BME280_humidity;BME280_pressure;Samples;Min_cycle;Max_cycle;Signal;HPM_P1;HPM_P2
2022/01/26 00:00:41;;;;;;;19.08;9.45;;;;;;;-2.32;45.03;95310.59;5029814;28;20192;-74
2022/01/26 00:05:53;;;;;;;13.15;8.27;;;;;;;-2.29;44.59;95312.97;5026268;28;20207;-75
2022/01/26 00:08:24;;;;;;;10.63;7.45;;;;;;;-2.73;45.63;95316.63;5027826;28;20180;-74
2022/01/26 00:10:49;;;;;;;12.00;7.53;;;;;;;-2.28;44.85;95309.47;5028131;28;20612;-75
2022/01/26 00:13:15;;;;;;;12.07;8.77;;;;;;;-2.55;45.71;95309.50;5027422;28;20239;-74
2022/01/26 00:15:40;;;;;;;11.90;8.90;;;;;;;-2.55;45.28;95314.63;5033522;28;20442;-74
2022/01/26 00:18:06;;;;;;;14.27;7.80;;;;;;;-2.22;44.87;95305.69;5047796;28;20175;-74
2022/01/26 00:20:44;;;;;;;11.37;7.27;;;;;;;-2.23;44.94;95299.75;5012672;28;20234;-74
2022/01/26 00:28:35;;;;;;;8.10;7.35;;;;;;;-2.64;45.59;95300.66;5008860;28;20957;-74
2022/01/26 00:33:06;;;;;;;8.88;6.90;;;;;;;-2.39;45.21;95304.22;5006682;28;20197;-74
2022/01/26 00:38:34;;;;;;;6.80;6.10;;;;;;;-2.76;45.87;95302.28;5033898;28;20708;-74
2022/01/26 00:40:01;;;;;;;15.63;10.52;;;;;;;-2.23;45.13;95299.75;5027656;28;20235;-74
2022/01/26 00:42:33;;;;;;;13.00;9.05;;;;;;;-2.42;45.50;95289.88;5023235;28;20187;-74
2022/01/26 00:44:58;;;;;;;10.40;7.30;;;;;;;-2.43;45.72;95292.53;5026304;28;20207;-74
2022/01/26 00:47:24;;;;;;;4.23;3.87;;;;;;;-2.53;45.26;95291.50;5026492;28;20184;-74
2022/01/26 00:49:50;;;;;;;11.33;6.63;;;;;;;-2.58;45.73;95289.22;5023530;28;20224;-74
2022/01/26 00:52:25;;;;;;;12.52;8.88;;;;;;;-2.63;45.95;95286.13;5028927;28;20200;-74
2022/01/26 00:54:51;;;;;;;12.48;7.85;;;;;;;-2.36;45.58;95294.59;5030556;28;20199;-74
2022/01/26 00:57:17;;;;;;;4.60;4.20;;;;;;;-2.29;44.71;95299.34;5026461;28;20211;-75
2022/01/26 00:59:42;;;;;;;9.17;6.73;;;;;;;-2.07;44.66;95293.63;5024528;28;20216;-77
2022/01/26 01:02:07;;;;;;;5.73;4.13;;;;;;;-2.39;45.73;95288.84;5026645;28;20176;-74
2022/01/26 01:04:33;;;;;;;10.63;6.90;;;;;;;-2.10;44.87;95278.47;5009099;28;20199;-74
2022/01/26 01:07:01;;;;;;;8.40;6.33;;;;;;;-2.17;44.79;95286.53;5026213;28;20184;-74
2022/01/26 01:09:32;;;;;;;9.82;7.38;;;;;;;-2.01;45.31;95286.38;5030654;28;20275;-74
2022/01/26 01:11:58;;;;;;;12.35;7.88;;;;;;;-1.69;44.07;95287.69;5026438;28;20207;-74
2022/01/26 01:14:24;;;;;;;9.43;6.93;;;;;;;-1.46;43.83;95284.41;5007922;28;20285;-74
2022/01/26 01:16:52;;;;;;;10.50;4.70;;;;;;;-2.19;45.62;95280.69;5005487;28;20200;-74
2022/01/26 01:19:33;;;;;;;15.93;8.05;;;;;;;-1.89;44.68;95282.16;5007894;28;20192;-74
2022/01/26 01:22:30;;;;;;;12.68;8.40;;;;;;;-1.60;44.51;95282.75;5007822;28;20355;-74
2022/01/26 01:30:56;;;;;;;15.52;8.77;;;;;;;-1.90;45.12;95277.94;5046779;28;20191;-74
2022/01/26 01:33:20;;;;;;;14.15;10.27;;;;;;;-1.93;45.21;95277.34;5025176;28;20678;-74
2022/01/26 01:35:42;;;;;;;8.70;7.20;;;;;;;-1.33;43.93;95278.41;5037353;28;20240;-74
2022/01/26 01:38:10;;;;;;;11.85;8.63;;;;;;;-1.55;44.39;95279.88;5027602;28;20187;-74
2022/01/26 01:40:38;;;;;;;12.18;9.70;;;;;;;-1.00;43.39;95281.19;5028856;28;20188;-74
2022/01/26 01:43:04;;;;;;;15.88;9.10;;;;;;;-1.05;43.74;95277.31;5028561;28;20204;-75
2022/01/26 01:45:35;;;;;;;16.67;10.90;;;;;;;-1.25;43.84;95273.56;5023253;28;20204;-75
2022/01/26 01:48:02;;;;;;;6.20;4.75;;;;;;;-1.34;44.31;95272.47;5028494;28;20184;-75
2022/01/26 01:50:29;;;;;;;9.60;8.32;;;;;;;-1.91;45.32;95268.63;5030800;28;20191;-74
2022/01/26 01:53:00;;;;;;;13.63;9.65;;;;;;;-1.64;45.05;95265.09;5030312;28;20207;-74
2022/01/26 01:55:28;;;;;;;13.35;9.55;;;;;;;-1.13;43.85;95259.06;5013429;28;20214;-74
2022/01/26 01:57:55;;;;;;;20.27;9.35;;;;;;;-1.24;44.51;95260.63;5028536;28;20187;-75
2022/01/26 02:00:21;;;;;;;12.38;8.93;;;;;;;-0.99;44.31;95256.31;5027990;28;20251;-75
2022/01/26 02:02:46;;;;;;;16.20;10.87;;;;;;;-0.92;44.00;95251.59;5008957;28;20227;-75
2022/01/26 02:05:12;;;;;;;13.60;10.03;;;;;;;-1.27;44.41;95248.00;5041062;28;20199;-75
2022/01/26 02:07:37;;;;;;;13.90;10.40;;;;;;;-1.24;44.94;95247.78;5030091;28;20207;-74
2022/01/26 02:10:04;;;;;;;12.53;8.63;;;;;;;-1.49;45.56;95240.16;5048731;28;20338;-74
2022/01/26 02:12:32;;;;;;;11.25;9.40;;;;;;;-1.55;45.33;95241.41;5036506;28;20208;-74
2022/01/26 02:15:06;;;;;;;13.18;9.70;;;;;;;-1.59;45.33;95242.53;5040900;28;20196;-74
2022/01/26 02:55:50;;;;;;;10.20;4.40;;;;;;;-1.39;46.19;95231.69;5009427;28;20184;-75
2022/01/26 03:01:13;;;;;;;10.75;7.88;;;;;;;-1.28;45.57;95225.81;5044100;28;20907;-74
2022/01/26 03:03:44;;;;;;;10.32;7.22;;;;;;;-0.79;44.66;95226.66;5027364;28;20176;-75
2022/01/26 03:06:16;;;;;;;12.70;8.80;;;;;;;-0.64;44.73;95229.88;5018063;28;20200;-75
2022/01/26 03:08:49;;;;;;;9.40;7.97;;;;;;;-0.75;45.06;95228.06;5005814;28;20169;-74
2022/01/26 03:11:15;;;;;;;12.88;7.82;;;;;;;-0.76;45.23;95233.31;5007494;28;20196;-74
2022/01/26 03:13:49;;;;;;;15.52;8.50;;;;;;;-1.23;45.18;95225.50;5010620;28;20230;-76
2022/01/26 03:16:30;;;;;;;9.27;8.25;;;;;;;-1.30;45.86;95227.66;5034586;28;20225;-74
2022/01/26 03:19:02;;;;;;;10.63;7.65;;;;;;;-1.05;44.92;95238.78;5048665;28;20159;-74
2022/01/26 03:21:36;;;;;;;10.00;8.25;;;;;;;-1.02;45.09;95238.59;5047562;28;20194;-74
2022/01/26 03:34:36;;;;;;;13.18;7.40;;;;;;;-0.78;43.87;95228.28;5039074;28;20278;-74
2022/01/26 03:37:07;;;;;;;6.25;5.60;;;;;;;-1.03;43.72;95227.47;5040466;28;20228;-74
2022/01/26 03:39:41;;;;;;;9.95;6.80;;;;;;;-0.77;44.37;95224.78;5009099;28;20208;-74
2022/01/26 03:42:09;;;;;;;8.93;7.15;;;;;;;-0.40;44.46;95232.38;5004565;28;20235;-73
2022/01/26 03:44:35;;;;;;;11.13;8.48;;;;;;;-0.70;44.54;95223.44;5046243;28;20179;-73
2022/01/26 03:47:00;;;;;;;10.70;8.20;;;;;;;-0.83;45.40;95235.53;5028756;28;20206;-74
2022/01/26 03:49:27;;;;;;;9.20;6.43;;;;;;;-1.01;44.63;95220.47;5046404;28;20186;-73
2022/01/26 03:51:53;;;;;;;16.48;7.90;;;;;;;-0.86;44.55;95215.19;5028247;28;20192;-73
2022/01/26 03:54:20;;;;;;;9.83;6.27;;;;;;;-0.98;44.97;95222.84;5027064;28;20178;-73
2022/01/26 03:56:45;;;;;;;8.88;7.47;;;;;;;-1.39;46.00;95215.47;5047287;28;20474;-73
2022/01/26 03:59:11;;;;;;;10.33;6.60;;;;;;;-1.31;45.43;95212.38;5047750;28;20669;-73
2022/01/26 04:01:38;;;;;;;12.13;7.77;;;;;;;-0.93;44.21;95208.84;5017323;28;20184;-74
2022/01/26 04:04:05;;;;;;;7.50;5.68;;;;;;;-0.88;44.58;95212.72;5026430;28;20420;-74
2022/01/26 04:06:31;;;;;;;8.73;6.75;;;;;;;-1.09;44.79;95212.50;5010122;28;20276;-75
2022/01/26 04:08:57;;;;;;;10.52;6.90;;;;;;;-1.25;45.46;95217.06;5024010;28;20212;-74
2022/01/26 04:11:34;;;;;;;11.00;6.70;;;;;;;-0.85;45.00;95215.06;5031341;28;20192;-75
2022/01/26 04:14:02;;;;;;;7.50;6.55;;;;;;;-0.64;44.60;95211.88;5027268;28;20254;-74
2022/01/26 04:16:27;;;;;;;7.72;5.93;;;;;;;-0.97;44.31;95218.50;5026602;28;20194;-74
2022/01/26 04:18:55;;;;;;;9.23;6.93;;;;;;;-0.66;44.30;95206.84;5014704;28;20572;-74
2022/01/26 04:26:20;;;;;;;3.73;3.37;;;;;;;-0.85;43.78;95191.97;5026566;28;20219;-74
2022/01/26 04:28:52;;;;;;;6.15;5.47;;;;;;;-0.85;43.65;95201.41;5024375;28;20926;-74
2022/01/26 04:31:21;;;;;;;14.07;6.75;;;;;;;-0.85;44.54;95196.28;5030220;28;20271;-75
2022/01/26 04:33:47;;;;;;;9.13;7.43;;;;;;;-0.77;44.21;95196.53;5027035;28;20196;-74
2022/01/26 04:36:17;;;;;;;8.13;6.15;;;;;;;-1.00;44.48;95198.19;5027926;28;20191;-75
2022/01/26 04:38:48;;;;;;;9.65;7.40;;;;;;;-1.28;45.24;95189.88;5024638;28;20250;-75
2022/01/26 04:43:44;;;;;;;11.43;7.65;;;;;;;-0.92;44.33;95198.47;5046631;28;20172;-74
2022/01/26 04:46:10;;;;;;;9.20;6.80;;;;;;;-1.05;45.10;95200.25;5046505;28;20179;-74
2022/01/26 04:48:35;;;;;;;8.57;6.27;;;;;;;-0.98;44.55;95207.41;5022639;28;20214;-75
2022/01/26 04:51:01;;;;;;;10.23;8.50;;;;;;;-0.17;43.46;95193.88;5006990;28;20185;-74
2022/01/26 04:53:26;;;;;;;12.13;8.00;;;;;;;-0.36;43.92;95192.69;5005150;28;20216;-75
2022/01/26 04:55:52;;;;;;;10.23;8.23;;;;;;;-0.46;43.82;95196.84;5009468;28;20274;-74
2022/01/26 04:58:18;;;;;;;12.40;8.67;;;;;;;-0.52;44.80;95197.31;5009778;28;20189;-75
2022/01/26 05:00:44;;;;;;;13.20;9.05;;;;;;;-0.35;44.45;95194.31;5009473;28;20189;-74
2022/01/26 05:03:10;;;;;;;12.30;7.93;;;;;;;-0.47;44.24;95187.53;5007153;28;20210;-74
2022/01/26 05:05:35;;;;;;;12.05;7.25;;;;;;;-0.83;44.07;95186.72;5023067;28;20450;-74
2022/01/26 05:08:01;;;;;;;9.40;6.83;;;;;;;-0.77;44.02;95195.72;5027825;28;20188;-74
2022/01/26 05:10:28;;;;;;;9.83;7.23;;;;;;;-0.29;44.13;95201.56;5030566;28;20259;-74
2022/01/26 05:12:54;;;;;;;9.63;7.40;;;;;;;-0.45;43.83;95189.03;5029844;28;20212;-74
2022/01/26 05:15:22;;;;;;;10.43;5.87;;;;;;;-0.61;44.69;95196.22;5018660;28;20250;-75
2022/01/26 05:17:48;;;;;;;10.00;7.07;;;;;;;-0.75;44.41;95192.09;5048524;28;20180;-74
2022/01/26 05:20:14;;;;;;;7.53;5.33;;;;;;;-0.54;43.99;95196.63;5029869;28;20238;-74
2022/01/26 05:22:41;;;;;;;8.80;7.53;;;;;;;-0.73;44.10;95197.13;5030331;28;20184;-74
2022/01/26 05:25:07;;;;;;;7.60;4.50;;;;;;;-0.84;44.84;95203.03;5030797;28;20658;-74
2022/01/26 05:27:33;;;;;;;10.18;8.07;;;;;;;-1.01;45.16;95199.94;5029454;28;20276;-75
2022/01/26 05:29:59;;;;;;;12.13;8.77;;;;;;;-0.80;45.41;95194.19;5030049;28;20231;-74
2022/01/26 05:32:25;;;;;;;10.33;7.87;;;;;;;-0.39;43.98;95190.34;5011066;28;20453;-73
2022/01/26 05:34:50;;;;;;;13.73;7.43;;;;;;;-0.58;44.97;95197.78;5029986;28;20188;-74
2022/01/26 05:37:16;;;;;;;15.43;9.07;;;;;;;-0.43;44.35;95188.94;5027490;28;20184;-74
2022/01/26 05:39:41;;;;;;;14.03;9.10;;;;;;;-0.30;45.31;95192.22;5027558;28;20193;-74
2022/01/26 05:42:07;;;;;;;15.90;8.10;;;;;;;-0.58;45.40;95182.34;5026248;28;20533;-75
2022/01/26 05:44:33;;;;;;;5.63;5.10;;;;;;;-0.46;45.63;95184.81;5010278;28;20219;-74
2022/01/26 05:46:59;;;;;;;15.20;7.97;;;;;;;0.02;45.16;95186.44;5030346;28;20481;-74
2022/01/26 05:49:25;;;;;;;12.17;7.80;;;;;;;0.09;44.84;95190.16;5028600;28;20422;-74
2022/01/26 05:51:51;;;;;;;12.10;8.73;;;;;;;-0.15;46.05;95185.13;5032070;28;20183;-74
2022/01/26 05:54:17;;;;;;;8.40;7.63;;;;;;;-0.30;46.42;95184.53;5048114;28;20599;-74
2022/01/26 05:56:44;;;;;;;13.33;8.50;;;;;;;0.02;46.10;95176.13;5020657;28;20184;-74
2022/01/26 05:59:10;;;;;;;11.60;8.43;;;;;;;-0.24;46.66;95178.91;5029308;28;20194;-74
2022/01/26 06:01:35;;;;;;;12.77;9.30;;;;;;;0.22;46.38;95182.31;5028162;28;20188;-75
2022/01/26 06:04:02;;;;;;;13.93;9.07;;;;;;;-0.14;47.12;95186.75;5027202;28;20287;-74
2022/01/26 06:06:27;;;;;;;13.70;8.60;;;;;;;-0.78;48.51;95176.91;5026017;28;20188;-74
2022/01/26 06:08:53;;;;;;;10.03;8.37;;;;;;;-0.35;48.08;95183.22;5027909;28;20238;-74
2022/01/26 06:11:18;;;;;;;12.53;9.73;;;;;;;-0.25;47.38;95185.00;5028182;28;20192;-74
2022/01/26 06:13:44;;;;;;;14.73;10.13;;;;;;;-0.29;47.69;95185.31;5027871;28;20218;-74
2022/01/26 06:16:10;;;;;;;20.33;11.40;;;;;;;-0.25;48.18;95185.00;5007686;28;20180;-75
2022/01/26 06:18:35;;;;;;;3.90;3.50;;;;;;;-0.09;47.67;95187.22;5027219;28;20195;-74
2022/01/26 06:21:03;;;;;;;12.57;9.57;;;;;;;-0.55;50.03;95188.09;5027784;28;20844;-74
2022/01/26 06:23:28;;;;;;;14.77;10.30;;;;;;;-0.58;49.83;95187.50;5028729;28;20252;-74
2022/01/26 06:25:56;;;;;;;9.87;7.87;;;;;;;-0.56;50.26;95175.34;5007483;28;20251;-74
2022/01/26 06:28:23;;;;;;;13.27;9.45;;;;;;;-0.57;51.22;95186.53;5028611;28;20188;-75
2022/01/26 06:30:55;;;;;;;15.35;10.32;;;;;;;-0.72;52.65;95181.63;5010718;28;20264;-75
2022/01/26 06:33:21;;;;;;;17.88;10.35;;;;;;;-0.07;50.44;95192.25;5009944;28;20219;-74
2022/01/26 06:35:46;;;;;;;13.88;8.60;;;;;;;-0.07;50.86;95185.34;5026080;28;20195;-74
2022/01/26 06:38:14;;;;;;;14.40;9.33;;;;;;;0.05;51.15;95186.19;5028876;28;20539;-74
2022/01/26 06:40:39;;;;;;;28.15;10.18;;;;;;;-0.43;52.27;95188.94;5026783;28;20188;-74
2022/01/26 06:43:10;;;;;;;16.30;12.70;;;;;;;-0.13;52.60;95185.81;5028006;28;20199;-73
2022/01/26 06:45:42;;;;;;;28.20;17.45;;;;;;;-0.09;53.40;95186.41;5027835;28;20195;-74
2022/01/26 06:50:55;;;;;;;17.00;11.38;;;;;;;0.28;53.31;95186.19;5027890;28;20195;-74
2022/01/26 06:53:21;;;;;;;17.20;9.60;;;;;;;-0.50;54.65;95191.13;5026627;28;20212;-74
2022/01/26 06:55:46;;;;;;;21.93;13.17;;;;;;;0.00;53.92;95193.44;5027943;28;20196;-74
2022/01/26 06:58:12;;;;;;;39.97;21.20;;;;;;;-0.05;54.34;95190.41;5026725;28;20189;-74
2022/01/26 07:00:37;;;;;;;22.80;15.83;;;;;;;0.71;52.40;95195.75;5026057;28;20195;-74
2022/01/26 07:03:03;;;;;;;27.10;16.00;;;;;;;0.38;53.64;95197.44;5031076;28;20188;-74
2022/01/26 07:05:29;;;;;;;28.00;15.37;;;;;;;0.47;53.23;95201.84;5027767;28;20207;-74
2022/01/26 07:07:54;;;;;;;19.67;13.23;;;;;;;-0.14;54.36;95198.78;5027851;28;20407;-75
2022/01/26 07:10:20;;;;;;;29.83;20.00;;;;;;;0.18;54.46;95204.91;5010840;28;20196;-75
2022/01/26 07:12:45;;;;;;;55.63;20.43;;;;;;;0.13;54.92;95204.44;5024036;28;20204;-74
2022/01/26 07:23:04;;;;;;;21.87;13.03;;;;;;;-0.02;55.97;95190.97;5029498;28;20180;-77
2022/01/26 07:25:30;;;;;;;23.73;12.37;;;;;;;-0.40;56.90;95180.97;5029482;28;20196;-74
2022/01/26 07:27:57;;;;;;;30.70;16.00;;;;;;;0.00;56.20;95188.31;5009579;28;20211;-74
2022/01/26 07:30:22;;;;;;;23.35;15.20;;;;;;;0.09;56.17;95197.88;5024899;28;20630;-74
2022/01/26 07:32:48;;;;;;;26.20;16.10;;;;;;;-0.06;56.96;95188.75;5025567;28;20243;-73
2022/01/26 07:35:13;;;;;;;41.43;20.40;;;;;;;0.52;55.11;95192.00;5028800;28;20185;-74
2022/01/26 07:37:39;;;;;;;31.30;16.80;;;;;;;0.70;54.21;95183.78;5019748;28;20192;-75
2022/01/26 07:40:09;;;;;;;22.27;13.87;;;;;;;0.16;56.38;95193.91;5026239;28;20446;-74
2022/01/26 07:42:38;;;;;;;32.13;20.90;;;;;;;0.95;54.42;95195.56;5026798;28;20211;-74
2022/01/26 07:45:08;;;;;;;31.70;22.05;;;;;;;0.91;54.58;95195.00;5025508;28;20659;-74
2022/01/26 07:47:34;;;;;;;19.20;12.90;;;;;;;0.02;57.18;95201.03;5024643;28;20192;-74
2022/01/26 07:50:01;;;;;;;25.67;17.15;;;;;;;0.65;55.89;95198.78;5007271;28;20193;-74
2022/01/26 07:52:30;;;;;;;21.05;13.15;;;;;;;0.37;56.58;95206.06;5006449;28;20204;-74
2022/01/26 07:54:55;;;;;;;10.23;7.10;;;;;;;0.44;56.15;95196.94;5025868;28;20192;-74
2022/01/26 07:57:22;;;;;;;147.37;111.63;;;;;;;0.66;56.45;95205.56;5025794;28;20214;-74
2022/01/26 07:59:47;;;;;;;83.88;62.47;;;;;;;1.14;54.68;95200.09;5027136;28;20307;-74
2022/01/26 08:02:13;;;;;;;130.67;103.53;;;;;;;0.09;59.02;95208.16;5024756;28;20204;-73
2022/01/26 08:04:38;;;;;;;56.10;37.60;;;;;;;0.89;56.27;95203.75;5023700;28;20192;-74
2022/01/26 08:07:04;;;;;;;30.87;26.00;;;;;;;0.72;56.92;95199.94;5022905;28;20198;-74
2022/01/26 08:09:29;;;;;;;55.53;35.90;;;;;;;1.05;55.75;95203.38;5024959;28;20188;-74
2022/01/26 08:11:55;;;;;;;19.00;14.17;;;;;;;0.02;58.69;95201.03;5009547;28;20230;-74
2022/01/26 08:14:20;;;;;;;22.33;17.30;;;;;;;0.70;56.92;95199.25;5026875;28;20247;-74
2022/01/26 08:16:46;;;;;;;21.83;14.40;;;;;;;0.81;56.17;95198.41;5025528;28;20184;-74
2022/01/26 08:19:14;;;;;;;16.77;11.77;;;;;;;0.87;56.54;95197.91;5027716;28;20791;-74
2022/01/26 08:21:41;;;;;;;17.33;10.38;;;;;;;0.60;58.07;95204.28;5022004;28;20223;-74
2022/01/26 08:24:13;;;;;;;18.15;11.00;;;;;;;0.80;57.69;95195.03;5027262;28;20674;-74
2022/01/26 08:26:49;;;;;;;11.70;9.68;;;;;;;0.70;57.60;95204.38;5029028;28;20238;-74
2022/01/26 08:29:19;;;;;;;17.60;10.75;;;;;;;0.54;58.25;95208.16;5025725;28;20156;-74
2022/01/26 08:31:44;;;;;;;25.65;16.35;;;;;;;1.30;57.03;95197.88;5007283;28;20244;-73
2022/01/26 08:34:10;;;;;;;25.10;14.13;;;;;;;1.28;56.79;95197.19;4994069;28;20292;-74
2022/01/26 08:36:36;;;;;;;23.23;13.52;;;;;;;1.74;54.85;95198.59;5020254;28;20574;-74
2022/01/26 08:39:02;;;;;;;18.57;10.57;;;;;;;1.56;55.24;95198.34;5005171;28;20264;-74
2022/01/26 08:41:28;;;;;;;18.83;12.60;;;;;;;1.13;57.12;95208.75;5012607;28;20275;-74
2022/01/26 08:43:54;;;;;;;19.42;11.55;;;;;;;1.42;56.59;95208.16;5019890;28;20431;-74
2022/01/26 08:46:20;;;;;;;26.47;11.73;;;;;;;1.49;55.92;95209.31;5009982;28;20210;-74
2022/01/26 08:48:45;;;;;;;17.50;10.33;;;;;;;1.57;56.06;95204.31;5007007;28;20185;-73
2022/01/26 08:51:11;;;;;;;20.00;11.80;;;;;;;1.58;55.96;95212.91;5007371;28;20257;-74
2022/01/26 08:53:36;;;;;;;7.70;7.00;;;;;;;0.99;58.03;95207.25;5028366;28;20210;-74
2022/01/26 08:56:02;;;;;;;19.90;10.27;;;;;;;1.40;56.22;95216.00;5038755;28;20195;-74
2022/01/26 08:58:27;;;;;;;15.67;10.70;;;;;;;1.28;56.89;95217.81;5024621;28;20192;-75
2022/01/26 09:00:54;;;;;;;15.37;10.93;;;;;;;1.46;56.02;95218.13;5006987;28;20450;-74
2022/01/26 09:03:20;;;;;;;15.50;10.30;;;;;;;1.93;55.00;95217.72;5022932;28;20603;-75
2022/01/26 09:05:46;;;;;;;17.97;8.40;;;;;;;1.68;55.55;95209.44;5028280;28;20254;-75
2022/01/26 09:08:11;;;;;;;20.57;9.77;;;;;;;2.23;54.82;95208.38;5022858;28;20234;-75
2022/01/26 09:10:39;;;;;;;18.80;10.37;;;;;;;1.78;55.70;95214.66;5019000;28;20220;-74
2022/01/26 09:13:04;;;;;;;12.25;7.70;;;;;;;1.46;55.98;95209.53;5025026;28;20196;-75
2022/01/26 09:15:31;;;;;;;12.33;9.53;;;;;;;1.29;57.19;95218.63;5008118;28;20516;-75
2022/01/26 09:17:59;;;;;;;13.38;9.93;;;;;;;1.14;57.65;95211.19;5025159;28;20654;-75
2022/01/26 09:20:25;;;;;;;12.55;7.28;;;;;;;0.91;58.78;95205.28;5022213;28;20187;-75
2022/01/26 09:22:50;;;;;;;18.57;9.80;;;;;;;1.48;57.10;95218.81;5026039;28;20215;-75
2022/01/26 09:25:16;;;;;;;17.77;9.33;;;;;;;1.51;57.06;95225.47;5025312;28;20426;-75
2022/01/26 09:27:42;;;;;;;9.43;8.53;;;;;;;1.50;56.45;95224.66;5020938;28;20306;-75
2022/01/26 09:30:08;;;;;;;32.63;11.43;;;;;;;1.60;56.57;95216.97;5020181;28;20188;-75
2022/01/26 09:32:34;;;;;;;17.88;8.88;;;;;;;0.65;58.82;95215.06;5011501;28;20211;-74
2022/01/26 09:34:59;;;;;;;17.47;9.73;;;;;;;0.86;58.83;95214.31;5006235;28;20224;-74
2022/01/26 09:37:25;;;;;;;13.50;6.50;;;;;;;1.49;57.02;95209.31;5017484;28;20179;-74
2022/01/26 09:39:50;;;;;;;17.57;8.87;;;;;;;1.47;56.47;95211.19;5023789;28;20195;-74
2022/01/26 09:42:16;;;;;;;14.50;8.97;;;;;;;1.13;58.20;95213.91;5039172;28;20294;-75
2022/01/26 09:44:42;;;;;;;14.82;9.90;;;;;;;1.72;56.67;95203.06;5022518;28;20726;-74
2022/01/26 09:47:09;;;;;;;24.30;11.73;;;;;;;2.03;55.59;95205.72;5005776;28;20206;-75
2022/01/26 09:49:36;;;;;;;21.73;11.93;;;;;;;1.86;56.00;95201.97;4996099;28;20228;-74
2022/01/26 09:52:28;;;;;;;21.10;7.85;;;;;;;1.40;57.35;95189.41;5028577;28;20251;-75
2022/01/26 09:54:56;;;;;;;26.02;10.63;;;;;;;1.79;56.33;95194.84;5027349;28;20701;-74
2022/01/26 09:57:22;;;;;;;34.42;11.88;;;;;;;1.77;56.56;95182.06;5013373;28;20184;-74
2022/01/26 09:59:48;;;;;;;20.67;11.33;;;;;;;2.05;55.84;95184.91;5028567;28;20206;-74
2022/01/26 10:02:31;;;;;;;13.85;10.43;;;;;;;2.62;54.59;95187.84;5027535;28;20234;-75
2022/01/26 10:05:10;;;;;;;6.18;4.93;;;;;;;2.06;55.67;95184.78;5025807;28;20196;-74
2022/01/26 10:08:11;;;;;;;11.70;9.18;;;;;;;2.00;55.81;95193.06;5027418;28;20178;-74
2022/01/26 10:16:25;;;;;;;11.32;8.80;;;;;;;1.94;56.54;95184.06;5025940;28;20215;-74
2022/01/26 10:18:50;;;;;;;13.52;10.48;;;;;;;2.52;55.83;95183.50;5032720;28;20211;-74
2022/01/26 10:21:15;;;;;;;15.20;10.48;;;;;;;2.42;56.08;95190.38;5028241;28;20207;-75
2022/01/26 10:23:42;;;;;;;12.73;9.07;;;;;;;2.19;56.29;95181.19;5027440;28;20184;-74
2022/01/26 10:26:14;;;;;;;13.65;9.60;;;;;;;1.46;58.77;95181.16;5029871;28;20228;-75
2022/01/26 10:28:48;;;;;;;17.63;9.10;;;;;;;1.56;57.56;95174.34;5027315;28;20184;-74
2022/01/26 10:31:14;;;;;;;12.45;10.07;;;;;;;1.08;60.39;95159.31;5030696;28;20188;-75
2022/01/26 10:33:39;;;;;;;9.30;8.07;;;;;;;1.34;59.30;95170.09;5027042;28;20719;-75
2022/01/26 10:36:05;;;;;;;9.83;7.10;;;;;;;1.68;58.68;95170.75;5031682;28;20192;-74
2022/01/26 10:38:30;;;;;;;11.67;8.77;;;;;;;1.73;58.65;95178.91;5020433;28;20188;-74
2022/01/26 10:40:59;;;;;;;11.80;8.97;;;;;;;1.42;60.42;95167.72;5026898;28;20194;-75
2022/01/26 10:43:25;;;;;;;13.43;6.93;;;;;;;1.28;61.31;95162.88;5030016;28;20176;-74
2022/01/26 10:53:44;;;;;;;17.48;10.90;;;;;;;1.78;59.29;95163.06;5035087;28;20223;-75
2022/01/26 10:56:10;;;;;;;12.05;9.43;;;;;;;1.89;59.83;95167.31;5032353;28;20313;-75
2022/01/26 10:58:36;;;;;;;12.00;8.93;;;;;;;1.86;60.17;95160.66;5025421;28;20675;-74
2022/01/26 11:01:01;;;;;;;8.80;6.57;;;;;;;1.84;59.84;95154.81;5007572;28;20207;-75
2022/01/26 11:03:28;;;;;;;13.93;10.17;;;;;;;1.35;61.11;95157.09;5009086;28;20679;-74
2022/01/26 11:05:53;;;;;;;14.40;11.38;;;;;;;2.31;59.04;95168.03;5004180;28;20289;-74
2022/01/26 11:08:21;;;;;;;21.10;9.83;;;;;;;1.93;59.59;95150.63;5024648;28;20195;-74
2022/01/26 11:10:46;;;;;;;15.38;10.50;;;;;;;1.75;60.53;95158.97;5026730;28;20269;-75
2022/01/26 11:13:24;;;;;;;16.30;12.17;;;;;;;2.46;58.26;95150.44;5014887;28;20209;-74
2022/01/26 11:15:50;;;;;;;17.05;12.48;;;;;;;2.32;58.97;95161.13;4995462;28;20557;-74
2022/01/26 11:18:21;;;;;;;10.60;9.43;;;;;;;1.42;60.66;95148.84;5023446;28;20230;-74
2022/01/26 11:20:50;;;;;;;17.00;11.48;;;;;;;1.47;61.41;95151.88;5025091;28;20188;-74
2022/01/26 11:23:32;;;;;;;22.73;12.88;;;;;;;1.58;61.53;95158.75;5027830;28;20215;-74
2022/01/26 11:25:58;;;;;;;13.93;9.63;;;;;;;1.83;60.35;95150.59;5025555;28;20631;-75
2022/01/26 11:28:25;;;;;;;14.30;9.90;;;;;;;1.72;60.28;95142.94;5022327;28;20226;-75
2022/01/26 11:30:58;;;;;;;18.00;12.00;;;;;;;1.74;60.10;95144.44;5025969;28;20296;-74
2022/01/26 11:33:27;;;;;;;21.92;13.15;;;;;;;2.03;59.54;95151.53;5026696;28;20204;-75
2022/01/26 11:35:55;;;;;;;17.80;14.55;;;;;;;2.04;59.73;95137.66;5025422;28;20193;-74
2022/01/26 11:47:18;;;;;;;29.95;18.80;;;;;;;2.12;59.67;95135.22;5022506;28;20634;-74
2022/01/26 11:49:44;;;;;;;26.83;13.32;;;;;;;2.56;58.43;95131.56;5008115;28;20264;-74
2022/01/26 11:52:29;;;;;;;23.33;15.77;;;;;;;1.83;60.27;95129.16;5025377;28;20189;-74
2022/01/26 11:54:58;;;;;;;12.27;8.63;;;;;;;2.51;58.97;95131.97;5027648;28;20226;-74
2022/01/26 11:58:05;;;;;;;20.65;11.15;;;;;;;2.50;58.49;95128.56;5024436;28;20195;-74
2022/01/26 12:00:44;;;;;;;17.83;11.73;;;;;;;2.46;58.76;95122.00;4985541;28;20199;-74
2022/01/26 12:03:31;;;;;;;17.35;11.07;;;;;;;2.63;58.51;95124.91;5026398;28;20242;-74
2022/01/26 12:05:59;;;;;;;17.33;12.57;;;;;;;2.90;58.52;95124.25;5026543;28;20198;-74
2022/01/26 12:08:38;;;;;;;20.15;13.95;;;;;;;3.02;57.61;95135.31;5021960;28;20199;-75
2022/01/26 12:11:09;;;;;;;17.42;11.02;;;;;;;2.58;59.00;95134.81;5025097;28;20213;-73
2022/01/26 12:13:37;;;;;;;14.88;11.05;;;;;;;2.42;59.90;95136.16;5021450;28;20236;-74
2022/01/26 12:16:15;;;;;;;17.25;13.27;;;;;;;2.47;59.88;95128.03;5020274;28;20184;-74
2022/01/26 12:38:25;;;;;;;8.63;6.82;;;;;;;1.96;62.34;95119.41;5035460;28;20202;-74
2022/01/26 12:43:45;;;;;;;45.58;13.18;;;;;;;2.32;61.36;95109.50;5012224;28;20321;-74
2022/01/26 12:46:13;;;;;;;13.02;9.18;;;;;;;2.32;60.98;95104.31;5027039;28;20212;-74
2022/01/26 12:48:40;;;;;;;16.92;10.70;;;;;;;2.51;60.48;95098.38;5022936;28;20205;-73
2022/01/26 12:51:08;;;;;;;16.25;8.45;;;;;;;2.23;60.94;95105.94;5011912;28;20199;-74
2022/01/26 12:53:38;;;;;;;12.77;9.98;;;;;;;1.96;61.77;95101.34;5025291;28;20701;-74
2022/01/26 12:56:05;;;;;;;17.17;9.88;;;;;;;2.45;60.60;95109.25;5021739;28;20188;-74
2022/01/26 12:58:35;;;;;;;20.52;11.18;;;;;;;2.40;60.79;95101.91;5020149;28;20188;-74
2022/01/26 13:01:06;;;;;;;22.20;10.68;;;;;;;2.82;59.12;95093.91;5024747;28;20220;-74
2022/01/26 13:03:37;;;;;;;17.00;10.60;;;;;;;2.70;58.75;95107.94;5024539;28;20176;-74
2022/01/26 13:06:36;;;;;;;9.90;8.35;;;;;;;2.66;59.16;95104.78;5024235;28;20300;-74
2022/01/26 13:09:25;;;;;;;12.80;9.30;;;;;;;2.81;59.05;95094.88;5001116;28;20188;-74
2022/01/26 13:11:52;;;;;;;13.77;10.97;;;;;;;2.47;59.72;95103.00;5007127;28;20254;-74
2022/01/26 13:14:25;;;;;;;18.65;10.10;;;;;;;2.64;59.42;95088.63;5024132;28;20445;-74
2022/01/26 13:28:07;;;;;;;43.70;29.40;;;;;;;2.23;60.00;95094.78;5003885;28;20228;-74
2022/01/26 13:41:23;;;;;;;21.23;13.97;;;;;;;2.64;59.15;95087.81;5008416;28;20185;-74
2022/01/26 13:59:38;;;;;;;33.85;18.92;;;;;;;2.58;60.03;95098.66;5048141;28;20700;-73
2022/01/26 14:02:03;;;;;;;19.48;12.13;;;;;;;2.45;60.52;95102.31;5027076;28;20196;-74
2022/01/26 14:04:29;;;;;;;5.87;5.33;;;;;;;2.92;58.17;95102.50;5009884;28;20215;-73
2022/01/26 14:06:54;;;;;;;21.00;11.77;;;;;;;2.58;59.62;95106.41;5024296;28;20192;-73
2022/01/26 14:09:20;;;;;;;17.13;12.80;;;;;;;2.83;59.08;95113.66;5009976;28;20198;-74
2022/01/26 14:11:48;;;;;;;19.77;14.27;;;;;;;2.81;58.84;95115.56;5012836;28;20657;-74
2022/01/26 14:14:21;;;;;;;15.20;11.85;;;;;;;2.78;59.48;95115.81;5009855;28;20196;-74
2022/01/26 14:16:55;;;;;;;16.83;11.10;;;;;;;3.01;58.03;95118.97;5028199;28;20184;-75
2022/01/26 14:19:28;;;;;;;21.83;11.63;;;;;;;3.54;57.30;95116.88;5023708;28;20195;-74
2022/01/26 14:22:30;;;;;;;17.23;10.75;;;;;;;2.95;58.74;95122.09;5007677;28;20184;-74